Tiempo atmosférico en la estación meteorológica de Becerreá, Lugo (1080 m.)



Fecha
DESCASC
Temp. máxima en grados centígrados (hora)
DESCASC
Temp. mínima en grados centígrados (hora)
DESCASC
Temp. media en grados centígrados
DESCASC
Racha de viento máxima en m/sg (hora)
DESCASC
Velocidad máxima media en intervalos de 10 minutos(hora)
DESCASC
Precipitaciones diarias en mm
DESCASC
Precipitaciones de 00:00 a 06:00 en mm
DESCASC
Precipitaciones de 06:00 a 12:00 en mm
DESCASC
Precipitaciones de 12:00 a 18:00 en mm
DESCASC
Precipitaciones de 18:00 a 24:00 en mm
DESCASC
15-08-2019 23.1 (16:40) 10.8 (07:00) 17 6.39 (17:10) 3.33 (17:10) 0 0 0 0 0
14-08-2019 20.3 (18:20) 12.2 (00:00) 16.2 6.11 (16:00) 3.61 (07:50) 0 0 0 0 0
13-08-2019 20.7 (18:10) 7.3 (00:00) 14 6.11 (15:40) 3.33 (23:40) 0 0 0 0 0
12-08-2019 15.3 (15:00) 7.4 (00:00) 11.4 5.83 (20:20) 2.78 (02:30) 0 0 0 0 0
11-08-2019 14.3 (14:10) 8.6 (00:00) 11.5 10.28 (16:00) 4.17 (16:10) 0 0 0 0 0
10-08-2019 18.2 (16:50) 10.4 (00:00) 14.3 7.78 (01:00) 3.33 (20:20) 0 0 0 0 0
09-08-2019 17.7 (00:00) 11.4 (00:00) 14.6 17.22 (00:10) 7.22 (00:10) 7.2 7.2 0 0 0
08-08-2019 20.5 (17:00) 15.2 (00:00) 17.8 15.28 (20:50) 6.67 (23:59) 0.8 0 0 0.8 0
07-08-2019 18.2 (12:50) 13.1 (00:00) 15.7 10.83 (17:00) 4.72 (22:10) 6 0 0 5.2 0.8
06-08-2019 18.2 (12:30) 14.1 (00:00) 16.2 7.78 (17:20) 3.61 (13:40) 0.2 0 0 0 0.2
05-08-2019 23.9 (17:00) 12.3 (00:00) 18.1 6.94 (16:10) 3.61 (21:00) 0 0 0 0 0
04-08-2019 23.1 (18:00) 14.2 (00:00) 18.7 7.5 (17:40) 3.33 (20:40) 0 0 0 0 0
03-08-2019 24.5 (17:30) 15.1 (00:00) 19.8 7.78 (16:10) 3.89 (16:10) 0 0 0 0 0
02-08-2019 24.1 (18:00) 11.9 (00:00) 18 6.67 (18:40) 3.33 (15:40) 0 0 0 0 0
01-08-2019 22.4 (17:20) 10.5 (00:00) 16.4 5.83 (17:10) 3.06 (19:30) 0 0 0 0 0
31-07-2019 18.3 (17:50) 7.9 (00:00) 13.1 4.72 (09:50) 2.22 (09:50) 0 0 0 0 0
30-07-2019 16.1 (16:50) 7.8 (00:00) 12 7.78 (02:20) 3.06 (02:20) 0.8 0.2 0.6 0 0
29-07-2019 15.7 (16:30) 9 (00:00) 12.3 10 (17:40) 4.17 (19:30) 1.6 0 0.8 0 0.8
28-07-2019 21.3 (18:30) 7.7 (00:00) 14.5 7.78 (15:50) 3.33 (22:10) 0 0 0 0 0
27-07-2019 16.2 (17:40) 8.7 (00:00) 12.5 5.56 (19:10) 2.5 (05:50) 7.6 2 4.4 1.2 0
26-07-2019 17.3 (16:40) 9.9 (00:00) 13.6 6.39 (17:50) 3.61 (21:30) 0.4 0 0.4 0 0
25-07-2019 21.5 (14:20) 12.6 (00:00) 17.1 8.89 (16:30) 5 (17:20) 5.4 0 0 2.4 3
24-07-2019 28.3 (16:50) 15.6 (00:00) 21.9 10.28 (18:00) 4.72 (23:30) 0 0 0 0 0
23-07-2019 26.8 (17:00) 17.9 (00:00) 22.3 10.28 (00:50) 4.17 (01:00) 0 0 0 0 0
22-07-2019 28.8 (17:50) 13.6 (00:00) 21.2 8.33 (10:50) 4.72 (07:30) 0 0 0 0 0
21-07-2019 23.6 (17:10) 12.1 (00:00) 17.9 5.83 (16:10) 2.5 (16:10) 0 0 0 0 0
20-07-2019 22.2 (17:50) 12.9 (00:00) 17.6 7.22 (16:00) 3.61 (00:20) 0 0 0 0 0
19-07-2019 24.6 (17:40) 14.1 (00:00) 19.4 7.5 (06:30) 5 (06:30) 0 0 0 0 0

Gráficas

Temp. máximas Temp. mínimas Temp. medias Precipitaciones Rachas de viento máximas Velocidades máximas media en intervalos de 10 minutos

Datos horarios

Fecha y hora oficial Temperatura (ºC) Velocidad del viento (km/h) Dirección del viento Racha (km/h) Dirección de racha Precipitación (mm) Presión (hPa) Tendencia (hPa) Humedad (%)
2019-08-17 23:00:00 16.5 5 Sur 19 Sudoeste 0 -- -- 86
2019-08-17 22:00:00 17 8 Oeste 26 Oeste 0 -- -- 89
2019-08-17 21:00:00 19.2 13 Oeste 24 Oeste 0 -- -- 80
2019-08-17 20:00:00 22.3 9 Sudoeste 24 Oeste 0 -- -- 59
2019-08-17 19:00:00 23.7 11 Sudoeste 26 Oeste 0 -- -- 55
2019-08-17 18:00:00 24.4 7 Sur 27 Sur 0 -- -- 54
2019-08-17 17:00:00 24.5 9 Oeste 26 Sudoeste 0 -- -- 55
2019-08-17 16:00:00 23.5 12 Oeste 27 Sudoeste 0 -- -- 57
2019-08-17 15:00:00 23.3 9 Oeste 22 Sudoeste 0 -- -- 62
2019-08-17 14:00:00 21.5 10 Oeste 23 Oeste 0 -- -- 70
2019-08-17 13:00:00 20.8 6 Oeste 13 Sudoeste 0 -- -- 72
2019-08-17 12:00:00 18.2 3 Sur 13 Noroeste 0 -- -- 82
2019-08-17 11:00:00 15.9 7 Sur 16 Sudeste 0 -- -- 88
2019-08-17 10:00:00 13.5 10 Sudoeste 20 Oeste 0 -- -- 100
2019-08-17 09:00:00 12.9 8 Sudoeste 21 Sudoeste 0 -- -- 100
2019-08-17 08:00:00 12.5 11 Sudoeste 25 Sudoeste 0 -- -- 100
2019-08-17 07:00:00 13 8 Sudoeste 19 Sudoeste 0 -- -- 93
2019-08-17 06:00:00 14.7 6 Sudoeste 16 Sur 0 -- -- 83
2019-08-17 05:00:00 15.1 5 Sudoeste 18 Sudoeste 0 -- -- 77
2019-08-17 04:00:00 14.3 6 Sudoeste 17 Sudoeste 0 -- -- 82
2019-08-17 03:00:00 14.7 4 Oeste 13 Sudoeste 0 -- -- 80
2019-08-17 02:00:00 14.6 5 Sudoeste 17 Sudoeste 0 -- -- 81
2019-08-17 01:00:00 14.7 3 Sudeste 14 Sudoeste 0 -- -- 95
2019-08-17 00:00:00 15.2 6 Oeste 18 Oeste 0 -- -- 97
2019-08-16 23:00:00 15.7 8 Oeste 18 Oeste 0 -- -- 92
2019-08-16 22:00:00 17 12 Oeste 23 Oeste 0 -- -- 85
2019-08-16 21:00:00 18.9 10 Oeste 22 Oeste 0 -- -- 73
2019-08-16 20:00:00 21 11 Oeste 24 Sudoeste 0 -- -- 63
2019-08-16 19:00:00 23 12 Oeste 23 Oeste 0 -- -- 51
2019-08-16 18:00:00 24.1 9 Oeste 24 Sudoeste 0 -- -- 49
2019-08-16 17:00:00 24.7 11 Oeste 26 Oeste 0 -- -- 48
2019-08-16 16:00:00 24.4 9 Oeste 28 Sudoeste 0 -- -- 44
2019-08-16 15:00:00 23.1 12 Oeste 23 Oeste 0 -- -- 41
2019-08-16 14:00:00 22 9 Oeste 19 Oeste 0 -- -- 50
2019-08-16 13:00:00 20.5 8 Sudoeste 20 Noroeste 0 -- -- 65
2019-08-16 12:00:00 19.9 4 Noroeste 10 Oeste 0 -- -- 66
2019-08-16 11:00:00 18.1 3 Noroeste 14 Sudoeste 0 -- -- 62
2019-08-16 10:00:00 16.8 9 Sudoeste 14 Sudoeste 0 -- -- 63
2019-08-16 09:00:00 15.9 4 Sudoeste 6 Sudoeste 0 -- -- 53
2019-08-16 08:00:00 13.3 3 Sur 8 Oeste 0 -- -- 63
2019-08-16 07:00:00 13.5 4 Sur 6 Sudoeste 0 -- -- 63
2019-08-16 06:00:00 13.6 7 Sudoeste 8 Sudoeste 0 -- -- 72
2019-08-16 05:00:00 13.4 3 Oeste 8 Oeste 0 -- -- 73
2019-08-16 04:00:00 13.3 0 Calma 4 Sudoeste 0 -- -- 71
2019-08-16 03:00:00 13.8 4 Sudoeste 6 Oeste 0 -- -- 86
2019-08-16 02:00:00 14.1 2 Sur 6 Sudeste 0 -- -- 87
2019-08-16 01:00:00 14.3 0 Calma 6 Sudeste 0 -- -- 84
2019-08-16 00:00:00 14.2 0 Calma 5 Sur 0 -- -- 84
2019-08-15 23:00:00 15.3 2 Norte 8 Oeste 0 -- -- 78
2019-08-15 22:00:00 15.8 7 Noroeste 20 Noroeste 0 -- -- 81
2019-08-15 21:00:00 17.3 12 Noroeste 20 Noroeste 0 -- -- 76
2019-08-15 20:00:00 19.3 6 Noroeste 14 Noroeste 0 -- -- 66
2019-08-15 19:00:00 21 7 Noroeste 21 Oeste 0 -- -- 64
2019-08-15 18:00:00 22.5 9 Noroeste 23 Noroeste 0 -- -- 62
2019-08-15 17:00:00 22.6 9 Noroeste 21 Oeste 0 -- -- 62
2019-08-15 16:00:00 22.5 8 Oeste 21 Noroeste 0 -- -- 66
2019-08-15 15:00:00 21.6 8 Oeste 17 Oeste 0 -- -- 68
2019-08-15 14:00:00 21 4 Norte 12 Noroeste 0 -- -- 67
2019-08-15 13:00:00 19.4 5 Norte 11 Norte 0 -- -- 64
2019-08-15 12:00:00 18.4 2 Nordeste 6 Nordeste 0 -- -- 79
2019-08-15 11:00:00 17 2 Nordeste 6 Norte 0 -- -- 66
2019-08-15 10:00:00 15.5 0 Calma 9 Sudeste 0 -- -- 49
2019-08-15 09:00:00 14.2 2 Este 7 Sudeste 0 -- -- 92
2019-08-15 08:00:00 11.8 0 Calma 5 Noroeste 0 -- -- 71
2019-08-15 07:00:00 10.8 0 Calma 7 Sur 0 -- -- 69
2019-08-15 06:00:00 12.4 4 Sur 5 Sur 0 -- -- 97
2019-08-15 05:00:00 12.2 3 Sudoeste 7 Sur 0 -- -- 96
2019-08-15 04:00:00 13.3 5 Sudoeste 9 Sudoeste 0 -- -- 100
2019-08-15 03:00:00 13.2 7 Sudoeste 13 Sudoeste 0 -- -- 100
2019-08-15 02:00:00 13.7 4 Sudoeste 7 Oeste 0 -- -- 99
2019-08-15 01:00:00 13.8 3 Oeste 10 Oeste 0 -- -- 97
2019-08-15 00:00:00 14.3 5 Oeste 9 Oeste 0 -- -- 97
2019-08-14 23:00:00 15 3 Norte 14 Oeste 0 -- -- 96
2019-08-14 22:00:00 15.8 7 Oeste 19 Oeste 0 -- -- 97
2019-08-14 21:00:00 16.9 9 Oeste 19 Oeste 0 -- -- 94
2019-08-14 20:00:00 17.6 8 Oeste 18 Noroeste 0 -- -- 91
2019-08-14 19:00:00 19.5 8 Oeste 18 Noroeste 0 -- -- 84
2019-08-14 18:00:00 19.6 7 Noroeste 20 Oeste 0 -- -- 84
2019-08-14 17:00:00 18.4 9 Oeste 22 Sudoeste 0 -- -- 87
2019-08-14 16:00:00 19.3 9 Oeste 22 Oeste 0 -- -- 82
2019-08-14 15:00:00 19.5 8 Oeste 19 Oeste 0 -- -- 77
2019-08-14 14:00:00 18.9 8 Oeste 20 Oeste 0 -- -- 79
2019-08-14 13:00:00 18.2 9 Oeste 18 Sudoeste 0 -- -- 79
2019-08-14 12:00:00 16.8 8 Sudoeste 19 Oeste 0 -- -- 79
2019-08-14 11:00:00 15.7 6 Oeste 16 Oeste 0 -- -- 67
2019-08-14 10:00:00 14.9 7 Sudoeste 15 Sudoeste 0 -- -- 56
2019-08-14 09:00:00 13.8 8 Sudoeste 18 Sudoeste 0 -- -- 50
2019-08-14 08:00:00 12.2 13 Oeste 20 Sudoeste 0 -- -- 84
2019-08-14 07:00:00 12.4 9 Sudoeste 17 Sudoeste 0 -- -- 79
2019-08-14 06:00:00 12.2 12 Oeste 18 Oeste 0 -- -- 75
2019-08-14 05:00:00 12.4 10 Sudoeste 18 Oeste 0 -- -- 88
2019-08-14 04:00:00 12.8 9 Oeste 14 Oeste 0 -- -- 88
2019-08-14 03:00:00 13 6 Sur 10 Sudeste 0 -- -- 89
2019-08-14 02:00:00 12.9 5 Oeste 13 Sur 0 -- -- 88
2019-08-14 01:00:00 13.3 6 Sur 14 Oeste 0 -- -- 91
2019-08-14 00:00:00 13.1 11 Oeste 16 Oeste 0 -- -- 93
2019-08-13 23:00:00 13.8 7 Oeste 18 Noroeste 0 -- -- 87
2019-08-13 22:00:00 14.3 11 Noroeste 19 Noroeste 0 -- -- 86
2019-08-13 21:00:00 17.1 6 Oeste 18 Noroeste 0 -- -- 60
2019-08-13 20:00:00 18.4 10 Oeste 21 Oeste 0 -- -- 52
2019-08-13 19:00:00 20 10 Oeste 20 Oeste 0 -- -- 46
2019-08-13 18:00:00 20.5 8 Oeste 21 Oeste 0 -- -- 41
2019-08-13 17:00:00 19.9 9 Oeste 18 Oeste 0 -- -- 52
2019-08-13 16:00:00 19.3 6 Oeste 22 Sudoeste 0 -- -- 56
2019-08-13 15:00:00 18.1 7 Oeste 19 Noroeste 0 -- -- 59
2019-08-13 14:00:00 17.3 7 Oeste 16 Oeste 0 -- -- 64
2019-08-13 13:00:00 16.2 3 Oeste 10 Norte 0 -- -- 70
2019-08-13 12:00:00 14.5 3 Nordeste 10 Noroeste 0 -- -- 79
2019-08-13 11:00:00 13.3 3 Sur 14 Sudeste 0 -- -- 82
2019-08-13 10:00:00 11.6 7 Sudeste 21 Sudeste 0 -- -- 87
2019-08-13 09:00:00 10.2 5 Sudeste 15 Sudeste 0 -- -- 95
2019-08-13 08:00:00 7.7 8 Sudeste 11 Sudeste 0 -- -- 100
2019-08-13 07:00:00 7.5 3 Sudeste 15 Sudeste 0 -- -- 100
2019-08-13 06:00:00 7.4 4 Sudeste 9 Sudeste 0 -- -- 100
2019-08-13 05:00:00 7.4 0 Calma 8 Sudeste 0 -- -- 100
2019-08-13 04:00:00 7.6 2 Sudeste 9 Sudeste 0 -- -- 99
2019-08-13 03:00:00 7.7 2 Nordeste 12 Este 0 -- -- 99
2019-08-13 02:00:00 8 4 Nordeste 12 Sudeste 0 -- -- 98
2019-08-13 01:00:00 8.3 3 Nordeste 15 Nordeste 0 -- -- 97
2019-08-13 00:00:00 8.9 4 Nordeste 16 Nordeste 0 -- -- 95
2019-08-12 23:00:00 9.2 5 Nordeste 16 Nordeste 0 -- -- 93
2019-08-12 22:00:00 9.9 5 Nordeste 15 Nordeste 0 -- -- 89
2019-08-12 21:00:00 10.9 6 Norte 21 Noroeste 0 -- -- 84
2019-08-12 20:00:00 13.1 7 Norte 18 Norte 0 -- -- 78
2019-08-12 19:00:00 14.4 3 Nordeste 15 Norte 0 -- -- 66
2019-08-12 18:00:00 15 3 Nordeste 15 Este 0 -- -- 65
2019-08-12 17:00:00 13.9 4 Norte 14 Nordeste 0 -- -- 66
2019-08-12 16:00:00 14.7 3 Norte 14 Noroeste 0 -- -- 61
2019-08-12 15:00:00 15.3 5 Norte 18 Nordeste 0 -- -- 63
2019-08-12 14:00:00 14.9 4 Nordeste 13 Nordeste 0 -- -- 67
2019-08-12 13:00:00 13.1 4 Nordeste 12 Nordeste 0 -- -- 71
2019-08-12 12:00:00 13.1 4 Nordeste 13 Nordeste 0 -- -- 79
2019-08-12 11:00:00 10.7 3 Nordeste 13 Nordeste 0 -- -- 89
2019-08-12 10:00:00 8.7 4 Norte 9 Nordeste 0 -- -- 99
2019-08-12 09:00:00 8.3 4 Norte 10 Norte 0 -- -- 100
2019-08-12 08:00:00 7.4 5 Noroeste 10 Oeste 0 -- -- 100
2019-08-12 07:00:00 7.7 5 Noroeste 13 Noroeste 0 -- -- 100
2019-08-12 06:00:00 7.8 6 Noroeste 15 Oeste 0 -- -- 100
2019-08-12 05:00:00 7.8 5 Noroeste 16 Oeste 0 -- -- 100
2019-08-12 04:00:00 8.1 7 Noroeste 18 Oeste 0 -- -- 100
2019-08-12 03:00:00 8.4 8 Oeste 20 Oeste 0 -- -- 100
2019-08-12 02:00:00 8.6 7 Oeste 15 Oeste 0 -- -- 100
2019-08-12 01:00:00 8.9 7 Oeste 15 Sudoeste 0 -- -- 100
2019-08-12 00:00:00 9.2 7 Oeste 17 Oeste 0 -- -- 99
2019-08-11 23:00:00 8.9 10 Oeste 21 Oeste 0 -- -- 97
2019-08-11 22:00:00 9.2 8 Oeste 15 Oeste 0 -- -- 93
2019-08-11 21:00:00 10.4 6 Oeste 22 Oeste 0 -- -- 87
2019-08-11 20:00:00 11.1 12 Oeste 25 Oeste 0 -- -- 85
2019-08-11 19:00:00 12.8 9 Oeste 22 Oeste 0 -- -- 75
2019-08-11 18:00:00 13.6 9 Oeste 30 Noroeste 0 -- -- 71
2019-08-11 17:00:00 12.2 13 Oeste 34 Oeste 0 -- -- 84
2019-08-11 16:00:00 13.2 13 Oeste 37 Oeste 0 -- -- 78
2019-08-11 15:00:00 13 12 Oeste 27 Noroeste 0 -- -- 81
2019-08-11 14:00:00 14.2 10 Sudoeste 21 Oeste 0 -- -- 70
2019-08-11 13:00:00 12.9 10 Sudoeste 21 Oeste 0 -- -- 72
2019-08-11 12:00:00 12.1 5 Oeste 13 Oeste 0 -- -- 80
2019-08-11 11:00:00 10.4 5 Sudoeste 14 Oeste 0 -- -- 93
2019-08-11 10:00:00 9.1 7 Sudoeste 14 Sudoeste 0 -- -- 100
2019-08-11 09:00:00 8.6 8 Oeste 23 Oeste 0 -- -- 100
2019-08-11 08:00:00 8.7 11 Oeste 20 Oeste 0 -- -- 100
2019-08-11 07:00:00 9 8 Oeste 14 Oeste 0 -- -- 100
2019-08-11 06:00:00 9.6 6 Oeste 14 Oeste 0 -- -- 100
2019-08-11 05:00:00 9.9 6 Oeste 12 Noroeste 0 -- -- 100
2019-08-11 04:00:00 10 6 Oeste 15 Oeste 0 -- -- 100
2019-08-11 03:00:00 10.5 4 Noroeste 11 Oeste 0 -- -- 100
2019-08-11 02:00:00 10.5 7 Oeste 11 Oeste 0 -- -- 99
2019-08-11 01:00:00 11 5 Oeste 13 Noroeste 0 -- -- 99
2019-08-11 00:00:00 11.5 6 Oeste 14 Noroeste 0 -- -- 98
2019-08-10 23:00:00 11.9 6 Noroeste 18 Noroeste 0 -- -- 96
2019-08-10 22:00:00 12.6 10 Noroeste 22 Noroeste 0 -- -- 91
2019-08-10 21:00:00 14.1 10 Oeste 22 Oeste 0 -- -- 81
2019-08-10 20:00:00 15.8 11 Oeste 23 Oeste 0 -- -- 69
2019-08-10 19:00:00 16.8 6 Oeste 22 Oeste 0 -- -- 68
2019-08-10 18:00:00 17.3 7 Oeste 20 Sudoeste 0 -- -- 63
2019-08-10 17:00:00 18.1 7 Noroeste 19 Oeste 0 -- -- 61
2019-08-10 16:00:00 17.2 8 Oeste 28 Sudoeste 0 -- -- 61
2019-08-10 15:00:00 16.8 9 Oeste 21 Sudoeste 0 -- -- 64
2019-08-10 14:00:00 16.4 11 Oeste 20 Sudoeste 0 -- -- 66
2019-08-10 13:00:00 14.7 6 Sudoeste 19 Oeste 0 -- -- 76
2019-08-10 12:00:00 13.3 8 Oeste 18 Sudoeste 0 -- -- 83
2019-08-10 11:00:00 12.4 8 Oeste 17 Oeste 0 -- -- 87
2019-08-10 10:00:00 11.7 8 Sudoeste 21 Oeste 0 -- -- 90
2019-08-10 09:00:00 10.7 6 Sudoeste 18 Sudoeste 0 -- -- 95
2019-08-10 08:00:00 10.4 7 Sudoeste 20 Sur 0 -- -- 95
2019-08-10 07:00:00 10.5 6 Sudoeste 17 Sudoeste 0 -- -- 95
2019-08-10 06:00:00 10.4 5 Sudoeste 20 Sudoeste 0 -- -- 95
2019-08-10 05:00:00 10.7 8 Sudoeste 19 Sudoeste 0 -- -- 94
2019-08-10 04:00:00 10.6 7 Sudoeste 26 Sudoeste 0 -- -- 92
2019-08-10 03:00:00 10.8 9 Sudoeste 20 Oeste 0 -- -- 91
2019-08-10 02:00:00 11.1 9 Sudoeste 27 Sudoeste 0 -- -- 95
2019-08-10 01:00:00 11.4 11 Sudoeste 28 Sudoeste 0 -- -- 95
2019-08-10 00:00:00 11.4 9 Sudoeste 28 Sudoeste 0 -- -- 92
2019-08-09 23:00:00 11.9 7 Sudoeste 30 Sudoeste 0 -- -- 94
2019-08-09 22:00:00 12.6 10 Sudoeste 28 Sudoeste 0 -- -- 89
2019-08-09 21:00:00 13.2 9 Sudoeste 31 Sudoeste 0 -- -- 87
2019-08-09 20:00:00 13.9 14 Sudoeste 32 Sudoeste 0 -- -- 84
2019-08-09 19:00:00 14.6 14 Sudoeste 32 Sudoeste 0 -- -- 80
2019-08-09 18:00:00 14.9 10 Sudoeste 41 Sur 0 -- -- 77
2019-08-09 17:00:00 16.4 16 Sudoeste 50 Oeste 0 -- -- 74
2019-08-09 16:00:00 16.8 12 Sur 36 Sudoeste 0 -- -- 77
2019-08-09 15:00:00 17.6 14 Sudoeste 41 Sudoeste 0 -- -- 71
2019-08-09 14:00:00 17.3 17 Sudoeste 39 Sudoeste 0 -- -- 70
2019-08-09 13:00:00 16.4 18 Sudoeste 42 Sur 0 -- -- 73
2019-08-09 12:00:00 15.4 15 Sur 41 Sudoeste 0 -- -- 79
2019-08-09 11:00:00 14 14 Sur 43 Sur 0 -- -- 85
2019-08-09 10:00:00 12.8 14 Sur 42 Sudoeste 0 -- -- 90
2019-08-09 09:00:00 12 12 Sur 48 Sudoeste 0 -- -- 92
2019-08-09 08:00:00 11.5 17 Sur 47 Sudoeste 0 -- -- 95
2019-08-09 07:00:00 11.7 15 Sudoeste 41 Sudoeste 0 -- -- 96
2019-08-09 06:00:00 11.7 16 Sudoeste 42 Sudoeste 0.2 -- -- 97
2019-08-09 05:00:00 12.3 18 Sudoeste 50 Oeste 0.4 -- -- 98
2019-08-09 04:00:00 14.4 22 Sudoeste 55 Oeste 5 -- -- 99
2019-08-09 03:00:00 16.7 14 Sur 40 Sudoeste 1.4 -- -- 99
2019-08-09 02:00:00 16.9 15 Sur 44 Sudoeste 0.2 -- -- 97
2019-08-09 01:00:00 17.7 18 Sur 62 Sudoeste 0 -- -- 88
2019-08-09 00:00:00 17.7 24 Sur 51 Sur 0 -- -- 91
2019-08-08 23:00:00 18.2 24 Sur 51 Sur 0 -- -- 88
2019-08-08 22:00:00 18.3 19 Sur 44 Sur 0 -- -- 86
2019-08-08 21:00:00 17.8 19 Sur 55 Sur 0 -- -- 86
2019-08-08 20:00:00 18.7 19 Sur 50 Sur 0 -- -- 84
2019-08-08 19:00:00 20.4 18 Sur 51 Oeste 0 -- -- 79
2019-08-08 18:00:00 20 16 Sur 41 Sur 0.2 -- -- 90
2019-08-08 17:00:00 20.5 17 Sur 34 Sudoeste 0 -- -- 91
2019-08-08 16:00:00 19.3 14 Sur 39 Sur 0.2 -- -- 95
2019-08-08 15:00:00 19.3 13 Sur 36 Sur 0 -- -- 93
2019-08-08 14:00:00 19 15 Sur 35 Sur 0.4 -- -- 93
2019-08-08 13:00:00 20 12 Sur 40 Sudeste 0 -- -- 85
2019-08-08 12:00:00 19.1 19 Sur 40 Sur 0 -- -- 87
2019-08-08 11:00:00 18.4 14 Sur 39 Sur 0 -- -- 90
2019-08-08 10:00:00 17.7 14 Sur 37 Sudoeste 0 -- -- 92
2019-08-08 09:00:00 16.8 15 Sur 44 Sudoeste 0 -- -- 93
2019-08-08 08:00:00 16.4 18 Sur 38 Sur 0 -- -- 93
2019-08-08 07:00:00 16.5 13 Sur 31 Sudoeste 0 -- -- 95
2019-08-08 06:00:00 16.5 17 Sur 33 Sur 0 -- -- 94
2019-08-08 05:00:00 16.5 16 Sur 34 Sur 0 -- -- 92
2019-08-08 04:00:00 16.2 16 Sur 36 Sur 0 -- -- 91
2019-08-08 03:00:00 16 12 Sur 33 Sur 0 -- -- 93
2019-08-08 02:00:00 15.9 17 Sur 36 Sur 0 -- -- 94
2019-08-08 01:00:00 15.4 17 Sur 37 Sur 0 -- -- 96
2019-08-08 00:00:00 15.2 12 Sur 27 Sudeste 0.4 -- -- 98
2019-08-07 23:00:00 15.5 13 Sur 32 Sur 0.2 -- -- 94
2019-08-07 22:00:00 15.6 14 Sur 31 Sur 0 -- -- 93
2019-08-07 21:00:00 15.6 12 Sur 30 Sudoeste 0 -- -- 95
2019-08-07 20:00:00 15.6 13 Sur 28 Sudoeste 0 -- -- 95
2019-08-07 19:00:00 15.7 12 Sur 31 Sur 0.2 -- -- 97
2019-08-07 18:00:00 15.8 9 Sur 25 Sur 0 -- -- 97
2019-08-07 17:00:00 15.6 14 Sur 39 Sudoeste 0.2 -- -- 99
2019-08-07 16:00:00 15.3 12 Sur 24 Sudeste 2.8 -- -- 98
2019-08-07 15:00:00 15.6 12 Sur 22 Sur 1.2 -- -- 96
2019-08-07 14:00:00 16.5 6 Sudoeste 22 Sudoeste 1 -- -- 92
2019-08-07 13:00:00 18 8 Sur 23 Sur 0 -- -- 77
2019-08-07 12:00:00 16.9 9 Sur 23 Oeste 0 -- -- 78
2019-08-07 11:00:00 17.5 4 Sur 14 Sudoeste 0 -- -- 73
2019-08-07 10:00:00 16.2 3 Sur 12 Sur 0 -- -- 83
2019-08-07 09:00:00 15 5 Sudeste 13 Este 0 -- -- 82
2019-08-07 08:00:00 13.7 7 Sudeste 12 Sudeste 0 -- -- 93
2019-08-07 07:00:00 13.5 2 Sur 9 Oeste 0 -- -- 91
2019-08-07 06:00:00 13.3 6 Sudoeste 10 Oeste 0 -- -- 96
2019-08-07 05:00:00 13.2 8 Sudoeste 12 Sudoeste 0 -- -- 93
2019-08-07 04:00:00 13.3 8 Sudoeste 12 Sudoeste 0 -- -- 97
2019-08-07 03:00:00 13.7 3 Sudeste 12 Sudoeste 0 -- -- 99
2019-08-07 02:00:00 14.2 4 Sudoeste 20 Oeste 0 -- -- 100
2019-08-07 01:00:00 14.1 10 Oeste 15 Sudoeste 0 -- -- 98
2019-08-07 00:00:00 14.7 7 Sudoeste 13 Sudoeste 0 -- -- 84
2019-08-06 23:00:00 14.7 7 Oeste 10 Oeste 0 -- -- 85
2019-08-06 22:00:00 14.7 4 Sudoeste 17 Sur 0 -- -- 80
2019-08-06 21:00:00 14.8 11 Sudeste 18 Sudeste 0 -- -- 96
2019-08-06 20:00:00 15.1 0 Calma 14 Oeste 0 -- -- 97
2019-08-06 19:00:00 15 7 Oeste 19 Oeste 0.2 -- -- 98
2019-08-06 18:00:00 15.3 10 Oeste 28 Oeste 0 -- -- 98
2019-08-06 17:00:00 16.7 13 Oeste 28 Oeste 0 -- -- 91
2019-08-06 16:00:00 17.4 12 Oeste 24 Sudoeste 0 -- -- 87
2019-08-06 15:00:00 17.6 13 Oeste 23 Oeste 0 -- -- 87
2019-08-06 14:00:00 17.9 9 Oeste 25 Sudoeste 0 -- -- 85
2019-08-06 13:00:00 17.5 13 Oeste 23 Sur 0 -- -- 90
2019-08-06 12:00:00 15.7 8 Sur 17 Sudoeste 0 -- -- 100
2019-08-06 11:00:00 14.4 8 Sudoeste 17 Sudoeste 0 -- -- 100
2019-08-06 10:00:00 14.5 8 Oeste 17 Oeste 0 -- -- 100
2019-08-06 09:00:00 14.5 8 Sudoeste 15 Noroeste 0 -- -- 100
2019-08-06 08:00:00 14.1 4 Sur 15 Sudoeste 0 -- -- 100
2019-08-06 07:00:00 14.2 6 Oeste 15 Oeste 0 -- -- 100
2019-08-06 06:00:00 14.4 8 Oeste 14 Oeste 0 -- -- 100
2019-08-06 05:00:00 14.7 5 Sudoeste 11 Sudeste 0 -- -- 98
2019-08-06 04:00:00 14.9 6 Sudeste 12 Sudoeste 0 -- -- 99
2019-08-06 03:00:00 15.2 8 Oeste 12 Sudoeste 0 -- -- 98
2019-08-06 02:00:00 15.4 8 Sudoeste 13 Oeste 0 -- -- 97
2019-08-06 01:00:00 16.1 6 Oeste 12 Oeste 0 -- -- 95
2019-08-06 00:00:00 16.3 7 Oeste 11 Oeste 0 -- -- 93
2019-08-05 23:00:00 16.6 6 Oeste 22 Noroeste 0 -- -- 92
2019-08-05 22:00:00 17.5 12 Noroeste 23 Noroeste 0 -- -- 86
2019-08-05 21:00:00 19.2 13 Oeste 22 Oeste 0 -- -- 78
2019-08-05 20:00:00 21.6 10 Oeste 21 Noroeste 0 -- -- 67
2019-08-05 19:00:00 22.5 8 Noroeste 21 Oeste 0 -- -- 62
2019-08-05 18:00:00 23.5 8 Oeste 22 Oeste 0 -- -- 58
2019-08-05 17:00:00 23.9 8 Oeste 25 Noroeste 0 -- -- 54
2019-08-05 16:00:00 23 10 Oeste 20 Oeste 0 -- -- 55
2019-08-05 15:00:00 22.3 7 Oeste 18 Oeste 0 -- -- 56
2019-08-05 14:00:00 21 7 Oeste 18 Oeste 0 -- -- 56
2019-08-05 13:00:00 20 6 Oeste 14 Sudoeste 0 -- -- 67
2019-08-05 12:00:00 18.1 4 Norte 12 Norte 0 -- -- 77
2019-08-05 11:00:00 16 2 Oeste 6 Oeste 0 -- -- 82
2019-08-05 10:00:00 14.4 4 Oeste 9 Noroeste 0 -- -- 83
2019-08-05 09:00:00 13.2 0 Calma 6 Sudeste 0 -- -- 99
2019-08-05 08:00:00 12.4 3 Sudeste 9 Oeste 0 -- -- 98
2019-08-05 07:00:00 12.5 7 Oeste 9 Oeste 0 -- -- 97
2019-08-05 06:00:00 13.6 3 Sur 7 Sudeste 0 -- -- 98
2019-08-05 05:00:00 13.7 3 Sudeste 8 Sudeste 0 -- -- 99
2019-08-05 04:00:00 13.7 2 Sudoeste 5 Sudoeste 0 -- -- 99
2019-08-05 03:00:00 14 0 Calma 5 Sudoeste 0 -- -- 97
2019-08-05 02:00:00 13.9 5 Sudoeste 12 Oeste 0 -- -- 98
2019-08-05 01:00:00 14.3 8 Oeste 13 Oeste 0 -- -- 97
2019-08-05 00:00:00 14.6 0 Calma 6 Noroeste 0 -- -- 95
2019-08-04 23:00:00 14.9 4 Oeste 14 Oeste 0 -- -- 93
2019-08-04 22:00:00 15.5 9 Noroeste 19 Noroeste 0 -- -- 92
2019-08-04 21:00:00 17.3 12 Noroeste 23 Noroeste 0 -- -- 86
2019-08-04 20:00:00 20.5 9 Noroeste 24 Sudoeste 0 -- -- 69
2019-08-04 19:00:00 22.6 9 Oeste 22 Noroeste 0 -- -- 54
2019-08-04 18:00:00 23.1 7 Noroeste 27 Oeste 0 -- -- 55
2019-08-04 17:00:00 22.8 7 Oeste 22 Oeste 0 -- -- 56
2019-08-04 16:00:00 22.2 6 Oeste 22 Noroeste 0 -- -- 60
2019-08-04 15:00:00 20.5 8 Sudoeste 19 Sudoeste 0 -- -- 63
2019-08-04 14:00:00 19.5 9 Sudoeste 19 Oeste 0 -- -- 73
2019-08-04 13:00:00 18.5 8 Oeste 17 Oeste 0 -- -- 82
2019-08-04 12:00:00 17.1 6 Oeste 13 Oeste 0 -- -- 90
2019-08-04 11:00:00 15.5 2 Norte 4 Norte 0 -- -- 95
2019-08-04 10:00:00 15.3 0 Calma 4 Este 0 -- -- 99
2019-08-04 09:00:00 14.4 0 Calma 4 Norte 0 -- -- 100
2019-08-04 08:00:00 14.2 0 Calma 5 Noroeste 0 -- -- 100
2019-08-04 07:00:00 14.7 0 Calma 9 Noroeste 0 -- -- 98
2019-08-04 06:00:00 14.7 2 Noroeste 5 Noroeste 0 -- -- 98
2019-08-04 05:00:00 14.9 0 Calma 3 Nordeste 0 -- -- 99
2019-08-04 04:00:00 14.6 0 Calma 9 Oeste 0 -- -- 99
2019-08-04 03:00:00 14.7 0 Calma 4 Oeste 0 -- -- 96
2019-08-04 02:00:00 14.9 2 Noroeste 3 Noroeste 0 -- -- 96
2019-08-04 01:00:00 15 0 Calma 9 Norte 0 -- -- 96
2019-08-04 00:00:00 15.3 4 Norte 14 Oeste 0 -- -- 97
2019-08-03 23:00:00 15.7 9 Oeste 19 Oeste 0 -- -- 94
2019-08-03 22:00:00 16.3 11 Noroeste 19 Noroeste 0 -- -- 94
2019-08-03 21:00:00 18.4 11 Noroeste 19 Noroeste 0 -- -- 87
2019-08-03 20:00:00 21.2 7 Noroeste 20 Noroeste 0 -- -- 77
2019-08-03 19:00:00 22.2 12 Noroeste 23 Oeste 0 -- -- 64
2019-08-03 18:00:00 24 12 Oeste 27 Sudoeste 0 -- -- 53
2019-08-03 17:00:00 24 11 Oeste 28 Oeste 0 -- -- 39
2019-08-03 16:00:00 23.4 14 Oeste 26 Oeste 0 -- -- 42
2019-08-03 15:00:00 22.2 13 Oeste 26 Oeste 0 -- -- 49
2019-08-03 14:00:00 21.1 10 Oeste 22 Oeste 0 -- -- 61
2019-08-03 13:00:00 20.6 9 Oeste 17 Oeste 0 -- -- 72
2019-08-03 12:00:00 19.7 8 Oeste 14 Oeste 0 -- -- 73
2019-08-03 11:00:00 18.1 5 Oeste 11 Oeste 0 -- -- 77
2019-08-03 10:00:00 17.2 6 Oeste 10 Oeste 0 -- -- 86
2019-08-03 09:00:00 17.1 3 Sudoeste 9 Oeste 0 -- -- 85
2019-08-03 08:00:00 15.6 8 Oeste 13 Oeste 0 -- -- 86
2019-08-03 07:00:00 15.1 6 Oeste 8 Oeste 0 -- -- 87
2019-08-03 06:00:00 15.4 4 Sudoeste 6 Sudoeste 0 -- -- 82
2019-08-03 05:00:00 15.8 2 Sur 3 Sudeste 0 -- -- 85
2019-08-03 04:00:00 15.9 0 Calma 3 Sudeste 0 -- -- 83
2019-08-03 03:00:00 15.8 0 Calma 7 Sudeste 0 -- -- 80
2019-08-03 02:00:00 15.7 0 Calma 4 Este 0 -- -- 85
2019-08-03 01:00:00 16.5 0 Calma 6 Norte 0 -- -- 84
2019-08-03 00:00:00 17.5 4 Noroeste 10 Noroeste 0 -- -- 79
2019-08-02 23:00:00 17.7 7 Noroeste 17 Noroeste 0 -- -- 81
2019-08-02 22:00:00 18.8 9 Noroeste 15 Noroeste 0 -- -- 75
2019-08-02 21:00:00 20.2 9 Noroeste 18 Oeste 0 -- -- 70
2019-08-02 20:00:00 22.1 10 Oeste 20 Noroeste 0 -- -- 55
2019-08-02 19:00:00 23.6 10 Oeste 24 Noroeste 0 -- -- 53
2019-08-02 18:00:00 24.1 7 Oeste 21 Oeste 0 -- -- 47
2019-08-02 17:00:00 23.8 8 Oeste 22 Noroeste 0 -- -- 53
2019-08-02 16:00:00 22.9 8 Oeste 23 Sudoeste 0 -- -- 62
2019-08-02 15:00:00 22 11 Oeste 20 Sudoeste 0 -- -- 66
2019-08-02 14:00:00 20.9 11 Oeste 18 Oeste 0 -- -- 73
2019-08-02 13:00:00 20.1 3 Norte 12 Norte 0 -- -- 77
2019-08-02 12:00:00 17.9 4 Norte 8 Nordeste 0 -- -- 87
2019-08-02 11:00:00 17.7 2 Este 6 Sudoeste 0 -- -- 85
2019-08-02 10:00:00 16.6 3 Sudoeste 6 Sur 0 -- -- 79
2019-08-02 09:00:00 14.9 2 Sudeste 4 Este 0 -- -- 86
2019-08-02 08:00:00 13 0 Calma 7 Oeste 0 -- -- 91
2019-08-02 07:00:00 12.6 5 Oeste 9 Oeste 0 -- -- 90
2019-08-02 06:00:00 12.4 4 Sudoeste 10 Oeste 0 -- -- 91
2019-08-02 05:00:00 12.1 0 Calma 10 Sudeste 0 -- -- 100
2019-08-02 04:00:00 12.6 5 Sudeste 10 Sudeste 0 -- -- 100
2019-08-02 03:00:00 12.9 2 Este 10 Este 0 -- -- 100
2019-08-02 02:00:00 13.1 0 Calma 10 Nordeste 0 -- -- 100
2019-08-02 01:00:00 13.2 2 Este 9 Este 0 -- -- 99
2019-08-02 00:00:00 13.8 2 Nordeste 7 Nordeste 0 -- -- 99
2019-08-01 23:00:00 13.9 3 Nordeste 9 Nordeste 0 -- -- 99
2019-08-01 22:00:00 14.3 5 Norte 10 Norte 0 -- -- 96
2019-08-01 21:00:00 16.3 3 Oeste 13 Noroeste 0 -- -- 90
2019-08-01 20:00:00 17.9 8 Oeste 18 Oeste 0 -- -- 85
2019-08-01 19:00:00 20.4 10 Noroeste 21 Noroeste 0 -- -- 77
2019-08-01 18:00:00 22.1 9 Oeste 21 Noroeste 0 -- -- 68
2019-08-01 17:00:00 22.2 6 Noroeste 17 Sudoeste 0 -- -- 61
2019-08-01 16:00:00 21.6 6 Oeste 14 Norte 0 -- -- 60
2019-08-01 15:00:00 20.4 3 Norte 14 Nordeste 0 -- -- 66
2019-08-01 14:00:00 18.5 5 Noroeste 12 Nordeste 0 -- -- 75
2019-08-01 13:00:00 16.7 3 Este 11 Nordeste 0 -- -- 87
2019-08-01 12:00:00 13.4 2 Este 10 Nordeste 0 -- -- 100
2019-08-01 11:00:00 11.8 3 Nordeste 9 Nordeste 0 -- -- 100
2019-08-01 10:00:00 11.2 2 Nordeste 13 Sudeste 0 -- -- 100
2019-08-01 09:00:00 10.6 3 Este 9 Este 0 -- -- 100
2019-08-01 08:00:00 10.5 2 Este 9 Este 0 -- -- 100
2019-08-01 07:00:00 10.6 2 Este 9 Este 0 -- -- 100
2019-08-01 06:00:00 10.8 2 Este 10 Este 0 -- -- 100
2019-08-01 05:00:00 10.9 2 Este 11 Este 0 -- -- 100
2019-08-01 04:00:00 11.2 3 Este 15 Este 0 -- -- 100
2019-08-01 03:00:00 11.4 3 Nordeste 13 Norte 0 -- -- 100
2019-08-01 02:00:00 11.6 2 Nordeste 12 Norte 0 -- -- 100
2019-08-01 01:00:00 11.7 3 Nordeste 10 Este 0 -- -- 99
2019-08-01 00:00:00 12.1 3 Nordeste 9 Este 0 -- -- 97
2019-07-31 23:00:00 12.8 3 Nordeste 12 Este 0 -- -- 95
2019-07-31 22:00:00 13.5 4 Nordeste 14 Norte 0 -- -- 93
2019-07-31 21:00:00 15.5 5 Norte 13 Nordeste 0 -- -- 85
2019-07-31 20:00:00 17.3 4 Nordeste 13 Norte 0 -- -- 78
2019-07-31 19:00:00 18 2 Nordeste 10 Nordeste 0 -- -- 74
2019-07-31 18:00:00 18.3 3 Nordeste 13 Nordeste 0 -- -- 70
2019-07-31 17:00:00 17.6 5 Noroeste 12 Noroeste 0 -- -- 67
2019-07-31 16:00:00 17.3 3 Norte 13 Norte 0 -- -- 66
2019-07-31 15:00:00 17.1 4 Norte 12 Norte 0 -- -- 65
2019-07-31 14:00:00 16.9 4 Nordeste 8 Nordeste 0 -- -- 70
2019-07-31 13:00:00 16.9 3 Este 8 Este 0 -- -- 74
2019-07-31 12:00:00 14.3 3 Este 8 Sudeste 0 -- -- 81
2019-07-31 11:00:00 13.6 3 Este 14 Sudeste 0 -- -- 83
2019-07-31 10:00:00 12.1 7 Sudeste 17 Sudeste 0 -- -- 88
2019-07-31 09:00:00 10.1 3 Este 10 Nordeste 0 -- -- 99
2019-07-31 08:00:00 8.4 3 Este 14 Este 0 -- -- 100
2019-07-31 07:00:00 8.1 2 Este 13 Este 0 -- -- 100
2019-07-31 06:00:00 8 2 Este 8 Este 0 -- -- 100
2019-07-31 05:00:00 8.1 2 Este 10 Este 0 -- -- 100
2019-07-31 04:00:00 8.2 3 Este 8 Este 0 -- -- 100
2019-07-31 03:00:00 8.2 2 Este 8 Nordeste 0 -- -- 100
2019-07-31 02:00:00 8.3 2 Este 9 Nordeste 0 -- -- 99
2019-07-31 01:00:00 8.6 3 Nordeste 10 Nordeste 0 -- -- 98
2019-07-31 00:00:00 9.2 3 Nordeste 14 Nordeste 0 -- -- 96
2019-07-30 23:00:00 9.9 5 Nordeste 15 Norte 0 -- -- 93
2019-07-30 22:00:00 11.2 6 Noroeste 17 Noroeste 0 -- -- 87
2019-07-30 21:00:00 12.9 8 Noroeste 18 Oeste 0 -- -- 76
2019-07-30 20:00:00 14.5 8 Noroeste 17 Noroeste 0 -- -- 65
2019-07-30 19:00:00 15.7 6 Noroeste 17 Noroeste 0 -- -- 61
2019-07-30 18:00:00 16.1 6 Noroeste 18 Nordeste 0 -- -- 60
2019-07-30 17:00:00 15.9 5 Noroeste 17 Noroeste 0 -- -- 64
2019-07-30 16:00:00 15.6 5 Noroeste 16 Noroeste 0 -- -- 62
2019-07-30 15:00:00 13.9 4 Nordeste 13 Nordeste 0 -- -- 71
2019-07-30 14:00:00 12.1 4 Norte 15 Noroeste 0 -- -- 73
2019-07-30 13:00:00 11.6 5 Noroeste 15 Oeste 0 -- -- 75
2019-07-30 12:00:00 10.5 6 Noroeste 13 Noroeste 0 -- -- 95
2019-07-30 11:00:00 9.2 4 Noroeste 14 Sudoeste 0.4 -- -- 100
2019-07-30 10:00:00 8.5 4 Oeste 11 Sudoeste 0.2 -- -- 100
2019-07-30 09:00:00 8.4 3 Oeste 12 Sudoeste 0 -- -- 100
2019-07-30 08:00:00 8.1 5 Oeste 12 Oeste 0 -- -- 100
2019-07-30 07:00:00 8 5 Oeste 14 Noroeste 0 -- -- 100
2019-07-30 06:00:00 8 5 Oeste 14 Oeste 0.2 -- -- 100
2019-07-30 05:00:00 7.8 7 Oeste 19 Oeste 0 -- -- 100
2019-07-30 04:00:00 8 9 Oeste 21 Sudoeste 0 -- -- 100
2019-07-30 03:00:00 8.3 6 Oeste 28 Oeste 0 -- -- 100
2019-07-30 02:00:00 8.6 9 Oeste 27 Sudoeste 0 -- -- 100
2019-07-30 01:00:00 8.8 8 Oeste 25 Oeste 0 -- -- 99
2019-07-30 00:00:00 9 8 Oeste 27 Oeste 0 -- -- 99
2019-07-29 23:00:00 9.2 11 Oeste 26 Oeste 0 -- -- 98
2019-07-29 22:00:00 9.3 10 Oeste 24 Oeste 0.6 -- -- 98
2019-07-29 21:00:00 10.3 10 Oeste 30 Oeste 0.2 -- -- 93
2019-07-29 20:00:00 12 9 Oeste 32 Oeste 0 -- -- 83
2019-07-29 19:00:00 12.7 13 Oeste 36 Sudoeste 0 -- -- 83
2019-07-29 18:00:00 14.8 10 Oeste 36 Oeste 0 -- -- 70
2019-07-29 17:00:00 15 12 Oeste 30 Sudoeste 0 -- -- 73
2019-07-29 16:00:00 14.8 12 Sudoeste 28 Sudoeste 0 -- -- 69
2019-07-29 15:00:00 14.3 11 Oeste 30 Sudoeste 0 -- -- 80
2019-07-29 14:00:00 14 7 Sudoeste 36 Oeste 0 -- -- 73
2019-07-29 13:00:00 14.1 9 Sur 27 Sudoeste 0 -- -- 73
2019-07-29 12:00:00 12.9 9 Sudoeste 27 Sudoeste 0 -- -- 78
2019-07-29 11:00:00 11.3 9 Sur 21 Sudoeste 0 -- -- 97
2019-07-29 10:00:00 10.8 9 Sur 29 Sudoeste 0 -- -- 100
2019-07-29 09:00:00 10.3 12 Sudoeste 35 Sudoeste 0 -- -- 100
2019-07-29 08:00:00 11 11 Sudoeste 29 Sudoeste 0.4 -- -- 100
2019-07-29 07:00:00 11.8 9 Sur 30 Sudoeste 0.4 -- -- 99
2019-07-29 06:00:00 12.5 9 Sudoeste 26 Sudoeste 0 -- -- 96
2019-07-29 05:00:00 12.2 10 Sudoeste 30 Sudoeste 0 -- -- 91
2019-07-29 04:00:00 11.6 10 Sudoeste 30 Sudoeste 0 -- -- 84
2019-07-29 03:00:00 13.7 12 Sudoeste 31 Sudoeste 0 -- -- 66
2019-07-29 02:00:00 13.6 7 Sudoeste 25 Sur 0 -- -- 69
2019-07-29 01:00:00 13.1 10 Sudoeste 32 Sudoeste 0 -- -- 47
2019-07-29 00:00:00 13.7 10 Sudoeste 24 Oeste 0 -- -- 80
2019-07-28 23:00:00 14.7 10 Oeste 24 Oeste 0 -- -- 78
2019-07-28 22:00:00 16.5 11 Oeste 21 Oeste 0 -- -- 67
2019-07-28 21:00:00 18.7 4 Sur 24 Oeste 0 -- -- 52
2019-07-28 20:00:00 19.9 6 Sudoeste 19 Sur 0 -- -- 44
2019-07-28 19:00:00 21.1 6 Sudoeste 22 Sudoeste 0 -- -- 45
2019-07-28 18:00:00 21.1 9 Sudoeste 22 Sudoeste 0 -- -- 49
2019-07-28 17:00:00 20.6 10 Sudoeste 22 Sudoeste 0 -- -- 51
2019-07-28 16:00:00 19.7 10 Sudoeste 28 Sudoeste 0 -- -- 60
2019-07-28 15:00:00 19.1 6 Sudoeste 24 Oeste 0 -- -- 60
2019-07-28 14:00:00 17.7 10 Sudoeste 22 Oeste 0 -- -- 65
2019-07-28 13:00:00 15.8 4 Oeste 13 Sur 0 -- -- 79
2019-07-28 12:00:00 15.3 4 Oeste 13 Sur 0 -- -- 82
2019-07-28 11:00:00 13.8 3 Sudeste 10 Sudoeste 0 -- -- 85
2019-07-28 10:00:00 12.2 0 Calma 5 Sur 0 -- -- 85
2019-07-28 09:00:00 11.1 3 Sur 6 Sudoeste 0 -- -- 85
2019-07-28 08:00:00 10 4 Sur 13 Sur 0 -- -- 87
2019-07-28 07:00:00 8.1 7 Sudeste 12 Sudeste 0 -- -- 100
2019-07-28 06:00:00 8 4 Sudeste 9 Sudeste 0 -- -- 100
2019-07-28 05:00:00 8.4 2 Este 8 Este 0 -- -- 100
2019-07-28 04:00:00 8.9 5 Sudeste 17 Este 0 -- -- 100
2019-07-28 03:00:00 8.8 2 Este 10 Nordeste 0 -- -- 100
2019-07-28 02:00:00 9 3 Nordeste 9 Nordeste 0 -- -- 100
2019-07-28 01:00:00 9.1 0 Calma 10 Norte 0 -- -- 99
2019-07-28 00:00:00 9.4 0 Calma 12 Este 0 -- -- 97
2019-07-27 23:00:00 10 5 Nordeste 14 Norte 0 -- -- 95
2019-07-26 12:00:00 -- -- -- -- -- -- -- -- --
2019-07-26 11:00:00 -- -- -- -- -- -- -- -- --
2019-07-26 10:00:00 -- -- -- -- -- -- -- -- --
2019-07-26 09:00:00 -- -- -- -- -- -- -- -- --
2019-07-26 08:00:00 10.7 3 Oeste 8 Oeste 0 -- -- 100
2019-07-26 07:00:00 10.5 0 Calma 7 Noroeste 0 -- -- 100
2019-07-26 06:00:00 10.1 4 Oeste 9 Oeste 0 -- -- 100
2019-07-26 05:00:00 10.4 4 Oeste 15 Oeste 0 -- -- 100
2019-07-26 04:00:00 10.2 8 Oeste 17 Sudoeste 0 -- -- 100
2019-07-26 03:00:00 10.8 7 Oeste 16 Sudoeste 0 -- -- 100
2019-07-26 02:00:00 11.1 9 Oeste 22 Oeste 0 -- -- 100
2019-07-26 01:00:00 11.6 8 Oeste 21 Sudoeste 0 -- -- 100
2019-07-26 00:00:00 12.6 7 Oeste 22 Sudoeste 0 -- -- 100
2019-07-25 23:00:00 13.4 8 Oeste 24 Oeste 0 -- -- 100
2019-07-25 22:00:00 13.6 6 Sudoeste 14 Oeste 0.2 -- -- 100
2019-07-25 21:00:00 13.8 4 Sudoeste 19 Sudoeste 0.2 -- -- 100
2019-07-25 20:00:00 13.6 12 Oeste 21 Oeste 0.2 -- -- 100
2019-07-25 19:00:00 13.8 7 Oeste 21 Sudoeste 2.4 -- -- 100
2019-07-25 18:00:00 13.5 16 Oeste 30 Oeste 2.4 -- -- 99
2019-07-25 17:00:00 14.5 15 Oeste 32 Oeste 0 -- -- 97
2019-07-25 16:00:00 18 14 Oeste 28 Oeste 0 -- -- 84
2019-07-25 15:00:00 20.8 8 Sudoeste 26 Oeste 0 -- -- 62
2019-07-25 14:00:00 21.4 12 Sudoeste 26 Sudoeste 0 -- -- 65
2019-07-25 13:00:00 20.6 11 Sudoeste 30 Oeste 0 -- -- 67
2019-07-25 12:00:00 19.5 9 Sudoeste 23 Oeste 0 -- -- 72
2019-07-25 11:00:00 18 9 Oeste 18 Sudoeste 0 -- -- 77
2019-07-25 10:00:00 18.1 7 Sur 23 Oeste 0 -- -- 72
2019-07-25 09:00:00 14.5 15 Sudoeste 22 Sudoeste 0 -- -- 89
2019-07-25 08:00:00 17.4 9 Sur 22 Sur 0 -- -- 67
2019-07-25 07:00:00 17.6 10 Sur 22 Sur 0 -- -- 63
2019-07-25 06:00:00 18.1 14 Sur 29 Sur 0 -- -- 63
2019-07-25 05:00:00 18.5 17 Sur 26 Sur 0 -- -- 60
2019-07-25 04:00:00 18.5 14 Sur 29 Sur 0 -- -- 59
2019-07-25 03:00:00 18.9 10 Sudoeste 26 Sur 0 -- -- 57
2019-07-25 02:00:00 19.3 12 Sudoeste 28 Sudoeste 0 -- -- 54
2019-07-25 01:00:00 19.1 11 Sudoeste 26 Sudoeste 0 -- -- 54
2019-07-25 00:00:00 18.6 15 Sudoeste 31 Sudoeste 0 -- -- 59
2019-07-24 23:00:00 19.7 17 Sudoeste 28 Oeste 0 -- -- 50
2019-07-24 22:00:00 20.8 14 Sudoeste 28 Sudoeste 0 -- -- 49
2019-07-24 21:00:00 22.9 13 Sudoeste 29 Sudoeste 0 -- -- 46
2019-07-24 20:00:00 24.7 15 Sudoeste 35 Sur 0 -- -- 40
2019-07-24 19:00:00 26.7 10 Sudoeste 34 Oeste 0 -- -- 41
2019-07-24 18:00:00 27.5 13 Sudoeste 37 Sudoeste 0 -- -- 42
2019-07-24 17:00:00 28 11 Sudoeste 28 Sudoeste 0 -- -- 47
2019-07-24 16:00:00 27.7 9 Sudoeste 32 Sudoeste 0 -- -- 47
2019-07-24 15:00:00 26.5 11 Oeste 26 Oeste 0 -- -- 57
2019-07-24 14:00:00 25.4 10 Oeste 24 Sudoeste 0 -- -- 65
2019-07-24 13:00:00 25.8 6 Sudoeste 21 Sur 0 -- -- 59
2019-07-24 12:00:00 24.1 9 Sur 18 Sur 0 -- -- 62
2019-07-24 11:00:00 21.8 4 Sudeste 21 Sudeste 0 -- -- 72
2019-07-24 10:00:00 20.4 3 Sudeste 17 Sur 0 -- -- 75
2019-07-24 09:00:00 19.1 5 Sur 12 Sur 0 -- -- 71
2019-07-24 08:00:00 18.3 7 Sur 17 Sudeste 0 -- -- 73
2019-07-24 07:00:00 18.3 9 Sur 16 Sur 0 -- -- 71
2019-07-24 06:00:00 17.9 12 Sur 22 Sur 0 -- -- 77
2019-07-24 05:00:00 15.9 6 Sudeste 11 Este 0 -- -- 92
2019-07-24 04:00:00 15.7 0 Calma 14 Oeste 0 -- -- 83
2019-07-24 03:00:00 16 5 Oeste 13 Oeste 0 -- -- 82
2019-07-24 02:00:00 16.8 5 Sudoeste 8 Sudoeste 0 -- -- 87
2019-07-24 01:00:00 17.7 3 Sudoeste 8 Sudeste 0 -- -- 86
2019-07-24 00:00:00 17.9 0 Calma 6 Noroeste 0 -- -- 83
2019-07-23 23:00:00 18.4 0 Calma 8 Norte 0 -- -- 80
2019-07-23 22:00:00 19.8 4 Noroeste 12 Noroeste 0 -- -- 74
2019-07-23 21:00:00 21.5 5 Oeste 18 Oeste 0 -- -- 72
2019-07-23 20:00:00 21.7 10 Oeste 27 Oeste 0 -- -- 56
2019-07-23 19:00:00 23.1 14 Oeste 29 Oeste 0 -- -- 57
2019-07-23 18:00:00 24.8 15 Oeste 33 Oeste 0 -- -- 61
2019-07-23 17:00:00 26.8 6 Oeste 29 Sudoeste 0 -- -- 53
2019-07-23 16:00:00 25.2 8 Sudoeste 19 Sur 0 -- -- 55
2019-07-23 15:00:00 24.9 8 Sudoeste 31 Sudoeste 0 -- -- 55
2019-07-23 14:00:00 24.9 9 Sudoeste 28 Oeste 0 -- -- 54
2019-07-23 13:00:00 23 8 Sur 20 Sudeste 0 -- -- 59
2019-07-23 12:00:00 21.6 10 Sudeste 26 Sudeste 0 -- -- 58
2019-07-23 11:00:00 23 5 Sudeste 20 Sudeste 0 -- -- 59
2019-07-23 10:00:00 22.5 4 Sudeste 17 Sudeste 0 -- -- 57
2019-07-23 09:00:00 22.4 4 Este 24 Sudoeste 0 -- -- 55
2019-07-23 08:00:00 22.5 13 Sur 24 Sudoeste 0 -- -- 46
2019-07-23 07:00:00 21.5 12 Sudeste 21 Sudeste 0 -- -- 47
2019-07-23 06:00:00 22.3 8 Sur 23 Sur 0 -- -- 46
2019-07-23 05:00:00 21.1 6 Sudeste 24 Sudeste 0 -- -- 50
2019-07-23 04:00:00 21.6 12 Sudeste 29 Sudeste 0 -- -- 51
2019-07-23 03:00:00 22.3 11 Sudeste 19 Sur 0 -- -- 51
2019-07-23 02:00:00 21.7 11 Sudeste 24 Sudeste 0 -- -- 55
2019-07-23 01:00:00 22 15 Sudeste 37 Este 0 -- -- 54
2019-07-23 00:00:00 22.3 9 Este 28 Sudeste 0 -- -- 56
2019-07-22 23:00:00 22.9 0 Calma 6 Sudeste 0 -- -- 75
2019-07-22 22:00:00 24 3 Sudoeste 6 Oeste 0 -- -- 74
2019-07-22 21:00:00 25.6 4 Oeste 8 Noroeste 0 -- -- 68
2019-07-22 20:00:00 26.6 5 Noroeste 15 Oeste 0 -- -- 65
2019-07-22 19:00:00 28 9 Oeste 19 Oeste 0 -- -- 59
2019-07-22 18:00:00 28.7 10 Oeste 21 Oeste 0 -- -- 52
2019-07-22 17:00:00 28.4 11 Oeste 19 Sudoeste 0 -- -- 59
2019-07-22 16:00:00 28.6 7 Oeste 15 Oeste 0 -- -- 62
2019-07-22 15:00:00 27.8 2 Este 8 Noroeste 0 -- -- 62
2019-07-22 14:00:00 27.2 2 Este 16 Sudeste 0 -- -- 61
2019-07-22 13:00:00 25.9 6 Sudeste 26 Sudeste 0 -- -- 61
2019-07-22 12:00:00 23.5 12 Sudeste 28 Sudeste 0 -- -- 69
2019-07-22 11:00:00 21.6 14 Sudeste 30 Sudeste 0 -- -- 72
2019-07-22 10:00:00 20.5 10 Sudeste 26 Sudeste 0 -- -- 78
2019-07-22 09:00:00 19 15 Sudeste 24 Sudeste 0 -- -- 78
2019-07-22 08:00:00 17.3 16 Sudeste 27 Sudeste 0 -- -- 87
2019-07-22 07:00:00 13.7 10 Sudeste 20 Sudeste 0 -- -- 100
2019-07-22 06:00:00 14 3 Sudeste 13 Sudeste 0 -- -- 100
2019-07-22 05:00:00 14.3 4 Sudeste 18 Sudeste 0 -- -- 100
2019-07-22 04:00:00 14.6 2 Sudeste 12 Sudeste 0 -- -- 100
2019-07-22 03:00:00 14.6 3 Sudeste 9 Sudeste 0 -- -- 100
2019-07-22 02:00:00 14.6 2 Este 9 Sudeste 0 -- -- 100
2019-07-22 01:00:00 14.9 3 Nordeste 14 Este 0 -- -- 100
2019-07-22 00:00:00 15 3 Este 9 Nordeste 0 -- -- 99
2019-07-21 23:00:00 15.7 4 Nordeste 9 Este 0 -- -- 97
2019-07-21 22:00:00 16.6 3 Nordeste 13 Nordeste 0 -- -- 94
2019-07-21 21:00:00 17.8 5 Norte 12 Noroeste 0 -- -- 90
2019-07-21 20:00:00 19.6 5 Noroeste 13 Noroeste 0 -- -- 84
2019-07-21 19:00:00 21.8 6 Noroeste 16 Norte 0 -- -- 77
2019-07-21 18:00:00 21.9 7 Norte 16 Norte 0 -- -- 76
2019-07-21 17:00:00 23.3 6 Noroeste 21 Oeste 0 -- -- 67
2019-07-21 16:00:00 22.9 9 Noroeste 19 Oeste 0 -- -- 69
2019-07-21 15:00:00 21.8 8 Noroeste 17 Noroeste 0 -- -- 73
2019-07-21 14:00:00 20.9 3 Norte 9 Sur 0 -- -- 76
2019-07-21 13:00:00 19.5 4 Sudeste 9 Este 0 -- -- 80
2019-07-21 12:00:00 16.6 3 Este 10 Nordeste 0 -- -- 95
2019-07-21 11:00:00 13.3 4 Nordeste 10 Nordeste 0 -- -- 100
2019-07-21 10:00:00 12.6 2 Nordeste 11 Este 0 -- -- 100
2019-07-21 09:00:00 12.2 2 Nordeste 12 Nordeste 0 -- -- 100
2019-07-21 08:00:00 12.3 2 Este 9 Sudeste 0 -- -- 100
2019-07-21 07:00:00 12.2 2 Este 8 Sudeste 0 -- -- 100
2019-07-21 06:00:00 12.4 2 Este 11 Sudeste 0 -- -- 100
2019-07-21 05:00:00 12.6 0 Calma 9 Este 0 -- -- 100
2019-07-21 04:00:00 12.8 3 Este 10 Sudeste 0 -- -- 100
2019-07-21 03:00:00 13.1 2 Nordeste 8 Nordeste 0 -- -- 100
2019-07-21 02:00:00 13.5 0 Calma 6 Nordeste 0 -- -- 99
2019-07-21 01:00:00 13.7 2 Este 9 Este 0 -- -- 98
2019-07-21 00:00:00 13.8 2 Nordeste 12 Norte 0 -- -- 98
2019-07-20 23:00:00 13.4 4 Nordeste 16 Nordeste 0 -- -- 97
2019-07-20 22:00:00 14.4 5 Norte 24 Noroeste 0 -- -- 95
2019-07-20 21:00:00 16 12 Noroeste 22 Norte 0 -- -- 90
2019-07-20 20:00:00 19.2 10 Noroeste 21 Noroeste 0 -- -- 77
2019-07-20 19:00:00 22 8 Noroeste 22 Noroeste 0 -- -- 61
2019-07-20 18:00:00 22.1 9 Oeste 23 Noroeste 0 -- -- 59
2019-07-20 17:00:00 21.9 10 Oeste 25 Noroeste 0 -- -- 61
2019-07-20 16:00:00 21 12 Oeste 26 Oeste 0 -- -- 64
2019-07-20 15:00:00 20.4 10 Oeste 21 Oeste 0 -- -- 72
2019-07-20 14:00:00 19.3 8 Oeste 17 Oeste 0 -- -- 79
2019-07-20 13:00:00 17.5 10 Oeste 19 Oeste 0 -- -- 83
2019-07-20 12:00:00 15.8 8 Oeste 14 Oeste 0 -- -- 90
2019-07-20 11:00:00 14.8 7 Sudoeste 14 Sudoeste 0 -- -- 96
2019-07-20 10:00:00 14.4 8 Oeste 17 Oeste 0 -- -- 96
2019-07-20 09:00:00 13.9 9 Oeste 13 Sudoeste 0 -- -- 96
2019-07-20 08:00:00 13 5 Sudoeste 8 Oeste 0 -- -- 99
2019-07-20 07:00:00 12.9 3 Sudoeste 6 Oeste 0 -- -- 94
2019-07-20 06:00:00 13.2 4 Oeste 8 Oeste 0 -- -- 93
2019-07-20 05:00:00 13.2 4 Oeste 10 Oeste 0 -- -- 96
2019-07-20 04:00:00 13.5 8 Oeste 14 Oeste 0 -- -- 99
2019-07-20 03:00:00 13.9 10 Oeste 14 Oeste 0 -- -- 96
2019-07-20 02:00:00 14.4 8 Oeste 9 Oeste 0 -- -- 90
2019-07-20 01:00:00 14.2 6 Sudoeste 19 Oeste 0 -- -- 92
2019-07-20 00:00:00 15.2 11 Sudoeste 16 Oeste 0 -- -- 88
2019-07-19 23:00:00 16.2 9 Oeste 22 Oeste 0 -- -- 84
2019-07-19 22:00:00 17.8 10 Oeste 27 Oeste 0 -- -- 79
2019-07-19 21:00:00 20.3 15 Oeste 26 Oeste 0 -- -- 71
2019-07-19 20:00:00 22.3 13 Noroeste 23 Noroeste 0 -- -- 67
2019-07-19 19:00:00 24.4 8 Noroeste 24 Oeste 0 -- -- 61
2019-07-19 18:00:00 24.4 9 Oeste 25 Sudoeste 0 -- -- 62
2019-07-19 17:00:00 24.5 10 Oeste 26 Sudoeste 0 -- -- 62
2019-07-19 16:00:00 23.7 12 Oeste 26 Oeste 0 -- -- 63
2019-07-19 15:00:00 22.7 12 Oeste 25 Oeste 0 -- -- 62
2019-07-19 14:00:00 22.2 10 Oeste 22 Sudoeste 0 -- -- 65
2019-07-19 13:00:00 22.1 6 Oeste 12 Oeste 0 -- -- 61
2019-07-19 12:00:00 21.8 2 Nordeste 15 Sur 0 -- -- 73
2019-07-19 11:00:00 20.5 6 Sur 18 Sur 0 -- -- 66
2019-07-19 10:00:00 19.1 9 Sur 16 Sudeste 0 -- -- 70
2019-07-19 09:00:00 18 9 Sudeste 22 Sur 0 -- -- 70
2019-07-19 08:00:00 17 15 Sudeste 26 Sudeste 0 -- -- 74
2019-07-19 07:00:00 16.6 15 Sudeste 27 Sudeste 0 -- -- 76
2019-07-19 06:00:00 15.6 13 Sudeste 21 Sudeste 0 -- -- 80
2019-07-19 05:00:00 14.8 2 Sudeste 11 Este 0 -- -- 95
2019-07-19 04:00:00 14.6 3 Este 11 Este 0 -- -- 97
2019-07-19 03:00:00 14.2 0 Calma 8 Este 0 -- -- 96
2019-07-19 02:00:00 14.4 2 Sudeste 7 Sudeste 0 -- -- 95
2019-07-19 01:00:00 14.9 0 Calma 8 Nordeste 0 -- -- 92
2019-07-19 00:00:00 15.2 2 Nordeste 11 Este 0 -- -- 92